Time;durP1;ratioP1;P1;durP2;ratioP2;P2;SDS_P1;SDS_P2;PMS_P1;PMS_P2;Temp;Humidity;BMP_temperature;BMP_pressure;BME280_temperature;BME280_humidity;BME280_pressure;Samples;Min_cycle;Max_cycle;Signal;HPM_P1;HPM_P2
2022/02/16 00:00:44;;;;;;;4.22;3.92;;;9.10;99.90;;;;;;5010255;28;20072;-43
2022/02/16 00:03:10;;;;;;;3.90;3.50;;;9.10;99.90;;;;;;5019012;28;20100;-43
2022/02/16 00:05:37;;;;;;;3.75;3.45;;;9.10;99.90;;;;;;5011875;28;20128;-44
2022/02/16 00:08:03;;;;;;;3.90;3.50;;;9.10;99.90;;;;;;5027475;28;20021;-43
2022/02/16 00:10:29;;;;;;;3.35;3.05;;;9.10;99.90;;;;;;5027798;28;20080;-43
2022/02/16 00:12:55;;;;;;;3.03;2.72;;;9.10;99.90;;;;;;5027960;28;20029;-42
2022/02/16 00:15:20;;;;;;;4.38;3.97;;;9.10;99.90;;;;;;5028746;28;20124;-42
2022/02/16 00:17:46;;;;;;;3.75;3.45;;;9.10;99.90;;;;;;5027329;28;20022;-42
2022/02/16 00:20:13;;;;;;;3.88;3.40;;;9.10;99.90;;;;;;5027988;28;20502;-44
2022/02/16 00:22:39;;;;;;;3.40;3.03;;;9.10;99.90;;;;;;5028214;28;20030;-43
2022/02/16 00:25:05;;;;;;;3.83;3.53;;;9.10;99.90;;;;;;5028014;28;20553;-44
2022/02/16 00:27:30;;;;;;;3.83;3.30;;;9.10;99.90;;;;;;5027534;28;20029;-43
2022/02/16 00:29:56;;;;;;;4.30;3.90;;;9.10;99.90;;;;;;5028531;28;20096;-43
2022/02/16 00:32:22;;;;;;;4.30;4.00;;;9.10;99.90;;;;;;5026652;28;20501;-43
2022/02/16 00:34:47;;;;;;;4.10;3.80;;;9.10;99.90;;;;;;5028214;28;20035;-43
2022/02/16 00:37:13;;;;;;;4.30;3.90;;;9.10;99.90;;;;;;5027411;28;20036;-42
2022/02/16 00:39:38;;;;;;;4.07;3.70;;;9.10;99.90;;;;;;5026495;28;20041;-43
2022/02/16 00:42:04;;;;;;;3.80;3.50;;;9.20;99.90;;;;;;5027586;28;20025;-43
2022/02/16 00:44:29;;;;;;;4.57;4.18;;;9.20;99.90;;;;;;5027317;28;20091;-43
2022/02/16 00:46:55;;;;;;;3.88;3.58;;;9.20;99.90;;;;;;5027648;28;20025;-42
2022/02/16 00:49:21;;;;;;;4.57;3.90;;;9.20;99.90;;;;;;5026836;28;20021;-43
2022/02/16 00:51:46;;;;;;;5.20;4.70;;;9.20;99.90;;;;;;5027857;28;20487;-43
2022/02/16 00:54:12;;;;;;;5.25;4.85;;;9.20;99.90;;;;;;5026646;28;20053;-43
2022/02/16 00:56:40;;;;;;;3.70;3.40;;;9.20;99.90;;;;;;5027423;28;20038;-43
2022/02/16 00:59:05;;;;;;;4.97;4.53;;;9.20;99.90;;;;;;5026770;28;20026;-43
2022/02/16 01:01:31;;;;;;;4.97;4.47;;;9.20;99.90;;;;;;5027400;28;20040;-42
2022/02/16 01:03:57;;;;;;;4.72;4.32;;;9.20;99.90;;;;;;5027497;28;20453;-42
2022/02/16 01:06:22;;;;;;;4.82;4.43;;;9.20;99.90;;;;;;5025927;28;20427;-43
2022/02/16 01:08:48;;;;;;;4.80;4.40;;;9.30;99.90;;;;;;5028185;28;20032;-43
2022/02/16 01:11:14;;;;;;;5.30;4.80;;;9.20;99.90;;;;;;5027353;28;20033;-42
2022/02/16 01:13:40;;;;;;;6.28;5.68;;;9.20;99.90;;;;;;5026957;28;20068;-44
2022/02/16 01:16:06;;;;;;;7.22;6.53;;;9.20;99.90;;;;;;5027440;28;20059;-43
2022/02/16 01:18:31;;;;;;;5.75;5.22;;;9.20;99.90;;;;;;5026521;28;20029;-43
2022/02/16 01:20:57;;;;;;;6.95;6.22;;;9.20;99.90;;;;;;5026778;28;20232;-43
2022/02/16 01:23:22;;;;;;;7.72;6.72;;;9.20;99.90;;;;;;5026864;28;20017;-43
2022/02/16 01:25:48;;;;;;;7.30;6.60;;;9.20;99.90;;;;;;5027634;28;20018;-44
2022/02/16 01:28:16;;;;;;;6.78;6.07;;;9.20;99.90;;;;;;5026377;28;20018;-43
2022/02/16 01:30:42;;;;;;;7.20;6.50;;;9.20;99.90;;;;;;5026566;28;20481;-43
2022/02/16 01:33:08;;;;;;;7.57;6.85;;;9.20;99.90;;;;;;5026750;28;20164;-43
2022/02/16 01:35:33;;;;;;;6.45;5.85;;;9.30;99.90;;;;;;5025902;28;20646;-44
2022/02/16 01:37:59;;;;;;;7.03;5.95;;;9.20;99.90;;;;;;5027490;28;20374;-44
2022/02/16 01:40:24;;;;;;;6.50;5.68;;;9.20;99.90;;;;;;5026172;28;20629;-43
2022/02/16 01:42:50;;;;;;;7.05;6.35;;;9.20;99.90;;;;;;5026001;28;20571;-43
2022/02/16 01:45:22;;;;;;;6.38;5.82;;;9.20;99.90;;;;;;5025952;28;20393;-42
2022/02/16 01:47:48;;;;;;;7.10;5.82;;;9.30;99.90;;;;;;5027500;28;20033;-43
2022/02/16 01:50:13;;;;;;;7.05;6.25;;;9.20;99.90;;;;;;5025388;28;20037;-43
2022/02/16 01:52:39;;;;;;;7.22;5.70;;;9.30;99.90;;;;;;5026858;28;20029;-42
2022/02/16 01:55:06;;;;;;;6.88;6.18;;;9.20;99.90;;;;;;5026711;28;20041;-43
2022/02/16 01:57:34;;;;;;;6.38;5.70;;;9.20;99.90;;;;;;5025431;28;20029;-42
2022/02/16 02:00:02;;;;;;;6.50;5.90;;;9.30;99.90;;;;;;5026567;28;20128;-43
2022/02/16 02:02:28;;;;;;;7.70;6.68;;;9.30;99.90;;;;;;5014434;28;20035;-43
2022/02/16 02:04:54;;;;;;;6.47;5.80;;;9.30;99.90;;;;;;5026870;28;20022;-43
2022/02/16 02:07:19;;;;;;;7.32;6.30;;;9.30;99.90;;;;;;5025115;28;20110;-43
2022/02/16 02:09:44;;;;;;;6.97;6.28;;;9.30;99.90;;;;;;5025379;28;20485;-43
2022/02/16 02:12:13;;;;;;;7.50;6.80;;;9.30;99.90;;;;;;5024606;28;20041;-42
2022/02/16 02:14:38;;;;;;;7.97;7.13;;;9.30;99.90;;;;;;5026350;28;20033;-43
2022/02/16 02:17:04;;;;;;;7.93;6.80;;;9.30;99.90;;;;;;5024949;28;20064;-43
2022/02/16 02:19:29;;;;;;;7.43;6.72;;;9.30;99.90;;;;;;5025434;28;20120;-43
2022/02/16 02:21:55;;;;;;;8.70;7.57;;;9.30;99.90;;;;;;5026121;28;20032;-43
2022/02/16 02:24:23;;;;;;;9.07;7.80;;;9.30;99.90;;;;;;5025477;28;20064;-43
2022/02/16 02:26:49;;;;;;;7.50;6.80;;;9.30;99.90;;;;;;5025734;28;20025;-44
2022/02/16 02:29:15;;;;;;;8.00;6.65;;;9.30;99.90;;;;;;5025386;28;20033;-42
2022/02/16 02:31:41;;;;;;;8.05;6.85;;;9.40;99.90;;;;;;5025612;28;20065;-43
2022/02/16 02:34:06;;;;;;;7.65;6.40;;;9.40;99.90;;;;;;5026176;28;20025;-43
2022/02/16 02:36:32;;;;;;;7.13;6.43;;;9.30;99.90;;;;;;5025120;28;20056;-43
2022/02/16 02:38:58;;;;;;;6.82;6.18;;;9.40;99.90;;;;;;5025560;28;20134;-42
2022/02/16 02:41:24;;;;;;;6.72;6.05;;;9.40;99.90;;;;;;5025428;28;20503;-42
2022/02/16 02:43:50;;;;;;;6.25;5.65;;;9.40;99.90;;;;;;5014655;28;20029;-43
2022/02/16 02:46:17;;;;;;;5.53;5.03;;;9.40;99.90;;;;;;5024464;28;20464;-42
2022/02/16 02:48:43;;;;;;;5.80;5.30;;;9.40;99.90;;;;;;5026033;28;20021;-43
2022/02/16 02:51:09;;;;;;;5.80;5.20;;;9.40;99.90;;;;;;5025112;28;20635;-43
2022/02/16 02:53:34;;;;;;;6.07;5.30;;;9.40;99.90;;;;;;5023156;28;20025;-43
2022/02/16 02:56:02;;;;;;;4.60;4.20;;;9.40;99.90;;;;;;5025872;28;20040;-43
2022/02/16 02:58:27;;;;;;;4.90;4.45;;;9.40;99.90;;;;;;5024931;28;20025;-42
2022/02/16 03:00:53;;;;;;;5.68;5.10;;;9.40;99.90;;;;;;5024366;28;20039;-42
2022/02/16 03:03:18;;;;;;;7.25;5.28;;;9.50;99.90;;;;;;5025171;28;20036;-42
2022/02/16 03:05:44;;;;;;;6.15;4.65;;;9.40;99.90;;;;;;5024371;28;20101;-42
2022/02/16 03:08:09;;;;;;;5.05;4.65;;;9.50;99.90;;;;;;5024668;28;20028;-43
2022/02/16 03:10:35;;;;;;;5.00;4.50;;;9.50;99.90;;;;;;5025412;28;20645;-42
2022/02/16 03:13:00;;;;;;;5.10;4.60;;;9.50;99.90;;;;;;5024381;28;20628;-43
2022/02/16 03:15:26;;;;;;;4.50;4.10;;;9.50;99.90;;;;;;5024687;28;20504;-43
2022/02/16 03:17:52;;;;;;;4.40;4.00;;;9.50;99.90;;;;;;5025393;28;20071;-44
2022/02/16 03:20:17;;;;;;;4.75;4.35;;;9.50;99.90;;;;;;5023177;28;20038;-42
2022/02/16 03:22:43;;;;;;;5.82;4.70;;;9.50;99.90;;;;;;5025379;28;20013;-42
2022/02/16 03:25:10;;;;;;;5.78;4.30;;;9.50;99.90;;;;;;5024986;28;20473;-43
2022/02/16 03:27:37;;;;;;;4.72;4.32;;;9.50;99.90;;;;;;5024328;28;20033;-43
2022/02/16 03:30:13;;;;;;;5.20;4.25;;;9.40;99.90;;;;;;5025303;28;20108;-42
2022/02/16 03:32:40;;;;;;;7.47;4.90;;;9.50;99.90;;;;;;5023701;28;20149;-44
2022/02/16 03:35:05;;;;;;;4.72;4.30;;;9.50;99.90;;;;;;5024982;28;20037;-42
2022/02/16 03:37:31;;;;;;;5.18;4.68;;;9.50;99.90;;;;;;5024819;28;20025;-42
2022/02/16 03:39:57;;;;;;;6.22;4.68;;;9.40;99.90;;;;;;5024916;28;20361;-43
2022/02/16 03:42:22;;;;;;;4.82;4.07;;;9.40;99.90;;;;;;5023687;28;20033;-44
2022/02/16 03:44:48;;;;;;;5.57;4.60;;;9.50;99.90;;;;;;5024632;28;20033;-43
2022/02/16 03:47:13;;;;;;;4.32;3.92;;;9.50;99.90;;;;;;5025019;28;20026;-43
2022/02/16 03:49:39;;;;;;;6.80;4.35;;;9.50;99.90;;;;;;5023786;28;20068;-41
2022/02/16 03:52:05;;;;;;;4.25;3.85;;;9.50;99.90;;;;;;5025055;28;20044;-42
2022/02/16 03:54:31;;;;;;;4.90;4.20;;;9.50;99.90;;;;;;5024274;28;20064;-43
2022/02/16 03:56:56;;;;;;;5.65;3.97;;;9.50;99.90;;;;;;5024667;28;20026;-43
2022/02/16 03:59:21;;;;;;;4.55;3.80;;;9.50;99.90;;;;;;5024350;28;20079;-43
2022/02/16 04:01:47;;;;;;;4.22;3.83;;;9.50;99.90;;;;;;5025263;28;20750;-43
2022/02/16 04:04:13;;;;;;;4.22;3.80;;;9.40;99.90;;;;;;5024551;28;20062;-43
2022/02/16 04:06:39;;;;;;;4.75;3.70;;;9.40;99.90;;;;;;5024789;28;20140;-42
2022/02/16 04:09:04;;;;;;;5.75;3.30;;;9.40;99.90;;;;;;5023915;28;20045;-43
2022/02/16 04:11:30;;;;;;;4.03;3.33;;;9.40;99.90;;;;;;5024698;28;20048;-43
2022/02/16 04:13:56;;;;;;;3.83;3.20;;;9.40;99.90;;;;;;5027858;28;20485;-42
2022/02/16 04:16:23;;;;;;;4.32;3.40;;;9.40;99.90;;;;;;5027094;28;20061;-43
2022/02/16 04:18:49;;;;;;;4.97;3.42;;;9.40;99.90;;;;;;5028880;28;20032;-42
2022/02/16 04:21:15;;;;;;;3.63;3.30;;;9.40;99.90;;;;;;5027060;28;20037;-43
2022/02/16 04:23:42;;;;;;;3.28;2.97;;;9.40;99.90;;;;;;5027680;28;20755;-42
2022/02/16 04:26:08;;;;;;;3.55;3.10;;;9.40;99.90;;;;;;5028065;28;20071;-42
2022/02/16 04:28:33;;;;;;;3.40;3.08;;;9.50;99.90;;;;;;5028329;28;20026;-42
2022/02/16 04:30:59;;;;;;;3.45;3.15;;;9.40;99.90;;;;;;5027467;28;20043;-43
2022/02/16 04:33:24;;;;;;;4.32;2.75;;;9.40;99.90;;;;;;5028044;28;20542;-43
2022/02/16 04:35:50;;;;;;;3.58;3.03;;;9.40;99.90;;;;;;5027586;28;20088;-43
2022/02/16 04:38:16;;;;;;;4.15;3.72;;;9.50;99.90;;;;;;5026632;28;20033;-43
2022/02/16 04:40:41;;;;;;;4.30;3.17;;;9.40;99.90;;;;;;5028182;28;20071;-43
2022/02/16 04:43:07;;;;;;;3.20;2.97;;;9.40;99.90;;;;;;5028377;28;20029;-42
2022/02/16 04:45:34;;;;;;;3.97;2.60;;;9.40;99.90;;;;;;5026769;28;20186;-42
2022/02/16 04:48:00;;;;;;;3.10;2.80;;;9.50;99.90;;;;;;5016591;28;20416;-44
2022/02/16 04:50:27;;;;;;;3.17;2.88;;;9.40;99.90;;;;;;5027228;28;20025;-43
2022/02/16 04:52:54;;;;;;;3.22;2.92;;;9.40;99.90;;;;;;5027685;28;20021;-42
2022/02/16 04:55:25;;;;;;;3.40;3.10;;;9.40;99.90;;;;;;5027222;28;20021;-42
2022/02/16 04:57:51;;;;;;;3.97;3.58;;;9.50;99.90;;;;;;5028232;28;20025;-42
2022/02/16 05:00:17;;;;;;;3.60;3.30;;;9.50;99.90;;;;;;5026335;28;20021;-43
2022/02/16 05:02:43;;;;;;;3.83;3.47;;;9.50;99.90;;;;;;5027223;28;20041;-42
2022/02/16 05:05:09;;;;;;;3.33;3.03;;;9.50;99.90;;;;;;5027666;28;20104;-42
2022/02/16 05:07:35;;;;;;;3.40;3.10;;;9.50;99.90;;;;;;5026468;28;20121;-43
2022/02/16 05:10:02;;;;;;;3.75;3.45;;;9.50;99.90;;;;;;5027660;28;20025;-43
2022/02/16 05:12:32;;;;;;;2.88;2.60;;;9.50;99.90;;;;;;5025690;28;20121;-44
2022/02/16 05:15:00;;;;;;;3.33;3.03;;;9.50;99.90;;;;;;5027688;28;20057;-43
2022/02/16 05:17:25;;;;;;;4.10;3.05;;;9.60;99.90;;;;;;5026552;28;20109;-42
2022/02/16 05:19:51;;;;;;;3.88;3.22;;;9.60;99.90;;;;;;5026741;28;20444;-44
2022/02/16 05:22:16;;;;;;;3.85;3.25;;;9.60;99.90;;;;;;5026653;28;20047;-43
2022/02/16 05:24:42;;;;;;;3.60;3.30;;;9.60;99.90;;;;;;5026561;28;20025;-43
2022/02/16 05:27:07;;;;;;;3.92;3.63;;;9.60;99.90;;;;;;5026779;28;20359;-43
2022/02/16 05:29:33;;;;;;;3.90;3.45;;;9.60;99.90;;;;;;5027291;28;20418;-43
2022/02/16 05:31:58;;;;;;;3.35;3.08;;;9.60;99.90;;;;;;5027345;28;20061;-42
2022/02/16 05:34:24;;;;;;;3.30;3.00;;;9.60;99.90;;;;;;5025977;28;20018;-42
2022/02/16 05:36:49;;;;;;;3.35;3.05;;;9.60;99.90;;;;;;5026810;28;20765;-43
2022/02/16 05:39:15;;;;;;;3.60;2.83;;;9.60;99.90;;;;;;5023048;28;20026;-43
2022/02/16 05:41:40;;;;;;;3.45;3.15;;;9.60;99.90;;;;;;5026466;28;20384;-43
2022/02/16 05:44:06;;;;;;;3.20;2.90;;;9.60;99.90;;;;;;5027036;28;20404;-43
2022/02/16 05:46:32;;;;;;;2.90;2.70;;;9.60;99.90;;;;;;5026548;28;20028;-42
2022/02/16 05:48:57;;;;;;;2.90;2.70;;;9.60;99.90;;;;;;5025683;28;20507;-42
2022/02/16 05:51:23;;;;;;;2.80;2.60;;;9.60;99.90;;;;;;5026300;28;20029;-43
2022/02/16 05:53:48;;;;;;;2.75;2.55;;;9.60;99.90;;;;;;5026787;28;20037;-43
2022/02/16 05:56:14;;;;;;;2.80;2.60;;;9.60;99.90;;;;;;5025633;28;20069;-42
2022/02/16 05:58:39;;;;;;;2.35;2.15;;;9.60;99.90;;;;;;5026285;28;20037;-42
2022/02/16 06:01:05;;;;;;;2.80;2.58;;;9.60;99.90;;;;;;5026755;28;20030;-42
2022/02/16 06:03:30;;;;;;;2.40;2.20;;;9.60;99.90;;;;;;5025107;28;20362;-44
2022/02/16 06:05:56;;;;;;;2.60;2.40;;;9.60;99.90;;;;;;5026484;28;20053;-42
2022/02/16 06:08:22;;;;;;;2.60;2.40;;;9.70;99.90;;;;;;5025974;28;20063;-42
2022/02/16 06:10:48;;;;;;;2.53;2.33;;;9.60;99.90;;;;;;5025661;28;20029;-44
2022/02/16 06:13:14;;;;;;;2.75;1.85;;;9.60;99.90;;;;;;5025301;28;20037;-43
2022/02/16 06:15:43;;;;;;;2.10;2.00;;;9.60;99.90;;;;;;5025801;28;20060;-43
2022/02/16 06:18:08;;;;;;;2.10;2.00;;;9.70;99.90;;;;;;5025313;28;20642;-43
2022/02/16 06:20:34;;;;;;;1.85;1.73;;;9.60;99.90;;;;;;5025801;28;20052;-42
2022/02/16 06:23:00;;;;;;;2.03;1.92;;;9.70;99.90;;;;;;5025973;28;20479;-43
2022/02/16 06:25:26;;;;;;;2.13;1.92;;;9.70;99.90;;;;;;5025209;28;20037;-43
2022/02/16 06:27:52;;;;;;;2.22;2.13;;;9.70;99.90;;;;;;5026614;28;20029;-43
2022/02/16 06:30:17;;;;;;;2.35;2.25;;;9.70;99.90;;;;;;5025288;28;20545;-43
2022/02/16 06:32:44;;;;;;;2.53;2.15;;;9.70;99.90;;;;;;5026412;28;20022;-43
2022/02/16 06:35:11;;;;;;;2.75;2.20;;;9.70;99.90;;;;;;5025207;28;20152;-43
2022/02/16 06:37:37;;;;;;;2.42;2.22;;;9.70;99.90;;;;;;5024584;28;20029;-43
2022/02/16 06:40:03;;;;;;;2.30;2.10;;;9.80;99.90;;;;;;5025997;28;20685;-42
2022/02/16 06:42:29;;;;;;;2.58;2.38;;;9.80;99.90;;;;;;5025277;28;20045;-42
2022/02/16 06:44:54;;;;;;;2.38;2.22;;;9.70;99.90;;;;;;5022230;28;20017;-43
2022/02/16 06:47:20;;;;;;;2.50;2.30;;;9.80;99.90;;;;;;5024294;28;20136;-43
2022/02/16 06:49:45;;;;;;;2.60;2.40;;;9.80;99.90;;;;;;5024394;28;20031;-42
2022/02/16 06:52:11;;;;;;;2.83;2.22;;;9.80;99.90;;;;;;5024361;28;20052;-43
2022/02/16 06:54:36;;;;;;;2.60;2.28;;;9.80;99.90;;;;;;5024190;28;20025;-42
2022/02/16 06:57:02;;;;;;;2.65;2.45;;;9.80;99.90;;;;;;5025646;28;20652;-43
2022/02/16 06:59:28;;;;;;;2.63;2.42;;;9.80;99.90;;;;;;5022767;28;20042;-43
2022/02/16 07:01:53;;;;;;;2.20;2.00;;;9.80;99.90;;;;;;5025246;28;20036;-42
2022/02/16 07:04:19;;;;;;;2.50;2.30;;;9.80;99.90;;;;;;5023977;28;20025;-43
2022/02/16 07:06:44;;;;;;;2.42;2.22;;;9.90;99.90;;;;;;5023870;28;20048;-43
2022/02/16 07:09:10;;;;;;;2.60;2.40;;;9.80;99.90;;;;;;5024878;28;20377;-44
2022/02/16 07:11:38;;;;;;;2.13;2.03;;;9.90;99.90;;;;;;5024266;28;20074;-43
2022/02/16 07:14:04;;;;;;;2.60;2.40;;;9.90;99.90;;;;;;5023593;28;20051;-43
2022/02/16 07:16:30;;;;;;;2.60;2.40;;;9.90;99.90;;;;;;5024204;28;20531;-44
2022/02/16 07:18:56;;;;;;;2.97;2.25;;;9.90;99.90;;;;;;5023757;28;20389;-43
2022/02/16 07:21:23;;;;;;;2.35;2.20;;;9.90;99.90;;;;;;5024274;28;20511;-45
2022/02/16 07:23:49;;;;;;;2.30;2.10;;;10.00;99.90;;;;;;5024893;28;20029;-42
2022/02/16 07:26:15;;;;;;;1.98;1.88;;;10.00;99.90;;;;;;5023300;28;20075;-43
2022/02/16 07:28:41;;;;;;;1.77;1.67;;;10.00;99.90;;;;;;5027334;28;20025;-43
2022/02/16 07:31:07;;;;;;;2.00;1.90;;;10.00;99.90;;;;;;5030515;28;20113;-43
2022/02/16 07:33:33;;;;;;;2.08;1.80;;;10.00;99.90;;;;;;5023982;28;20116;-42
2022/02/16 07:35:58;;;;;;;1.88;1.77;;;10.00;99.90;;;;;;5025357;28;20042;-43
2022/02/16 07:38:24;;;;;;;1.80;1.70;;;10.10;99.90;;;;;;5024286;28;20029;-43
2022/02/16 07:40:49;;;;;;;2.38;2.17;;;10.00;99.90;;;;;;5024626;28;20086;-44
2022/02/16 07:43:15;;;;;;;2.28;2.08;;;10.10;99.90;;;;;;5024530;28;20457;-44
2022/02/16 07:45:40;;;;;;;2.00;1.90;;;10.10;99.90;;;;;;5025918;28;20091;-44
2022/02/16 07:48:06;;;;;;;2.05;1.95;;;10.10;99.90;;;;;;5025640;28;20030;-42
2022/02/16 07:50:32;;;;;;;2.00;1.80;;;10.10;99.90;;;;;;5028120;28;20060;-42
2022/02/16 07:53:04;;;;;;;1.80;1.70;;;10.10;99.90;;;;;;5029686;28;20401;-43
2022/02/16 07:55:31;;;;;;;1.92;1.83;;;10.10;99.90;;;;;;5028718;28;20045;-44
2022/02/16 07:58:01;;;;;;;2.40;2.20;;;10.20;99.90;;;;;;5028976;28;20112;-44
2022/02/16 08:00:31;;;;;;;1.92;1.83;;;10.20;99.90;;;;;;5028961;28;20153;-44
2022/02/16 08:02:57;;;;;;;1.90;1.80;;;10.20;99.90;;;;;;5028556;28;20346;-43
2022/02/16 08:05:23;;;;;;;1.90;1.80;;;10.20;99.90;;;;;;5029104;28;20088;-43
2022/02/16 08:07:49;;;;;;;2.00;1.90;;;10.30;99.90;;;;;;5030089;28;20026;-44
2022/02/16 08:10:14;;;;;;;1.90;1.80;;;10.30;99.90;;;;;;5027734;28;20540;-44
2022/02/16 08:12:52;;;;;;;2.25;2.05;;;10.30;99.90;;;;;;5029319;28;20028;-43
2022/02/16 08:15:21;;;;;;;1.95;1.80;;;10.40;99.90;;;;;;5028071;28;20036;-43
2022/02/16 08:17:46;;;;;;;2.00;1.90;;;10.40;99.90;;;;;;5029264;28;20807;-43
2022/02/16 08:20:13;;;;;;;2.33;2.13;;;10.40;99.90;;;;;;5028724;28;20124;-43
2022/02/16 08:22:38;;;;;;;2.30;2.20;;;10.40;99.90;;;;;;5026821;28;20018;-44
2022/02/16 08:25:05;;;;;;;2.80;2.60;;;10.50;99.90;;;;;;5026803;28;20022;-44
2022/02/16 08:27:31;;;;;;;2.55;2.35;;;10.50;99.90;;;;;;5025646;28;20461;-43
2022/02/16 08:29:57;;;;;;;2.53;2.33;;;10.50;99.90;;;;;;5022251;28;20032;-44
2022/02/16 08:32:22;;;;;;;2.70;2.50;;;10.60;99.90;;;;;;5026180;28;20033;-43
2022/02/16 08:34:48;;;;;;;3.33;3.03;;;10.60;99.90;;;;;;5026667;28;20045;-43
2022/02/16 08:37:14;;;;;;;3.00;2.80;;;10.60;99.90;;;;;;5026507;28;20041;-43
2022/02/16 08:39:39;;;;;;;2.83;2.58;;;10.60;99.90;;;;;;5027761;28;20091;-42
2022/02/16 08:42:06;;;;;;;2.78;2.58;;;10.70;99.90;;;;;;5028655;28;20385;-43
2022/02/16 08:44:31;;;;;;;2.75;2.55;;;10.70;99.90;;;;;;5026827;28;20350;-44
2022/02/16 08:46:57;;;;;;;2.90;2.70;;;10.70;99.90;;;;;;5028293;28;20025;-42
2022/02/16 08:49:23;;;;;;;3.22;3.03;;;10.70;99.90;;;;;;5027299;28;20032;-43
2022/02/16 08:51:49;;;;;;;3.28;2.97;;;10.70;99.90;;;;;;5027235;28;20033;-42
2022/02/16 08:54:15;;;;;;;3.55;2.92;;;10.70;99.90;;;;;;5027422;28;20103;-44
2022/02/16 08:56:43;;;;;;;3.80;3.50;;;10.80;99.90;;;;;;5027496;28;20085;-43
2022/02/16 08:59:09;;;;;;;3.80;3.50;;;10.80;99.90;;;;;;5025877;28;20487;-43
2022/02/16 09:01:34;;;;;;;4.05;3.75;;;10.80;99.90;;;;;;5026916;28;20504;-43
2022/02/16 09:04:01;;;;;;;4.35;4.05;;;10.80;99.90;;;;;;5026872;28;20030;-43
2022/02/16 09:06:27;;;;;;;4.47;4.05;;;10.80;99.90;;;;;;5026083;28;20397;-42
2022/02/16 09:08:53;;;;;;;4.60;4.22;;;10.80;99.90;;;;;;5027762;28;20477;-43
2022/02/16 09:11:19;;;;;;;4.28;3.88;;;10.90;99.90;;;;;;5026205;28;20481;-43
2022/02/16 09:13:44;;;;;;;4.45;4.05;;;10.90;99.90;;;;;;5026857;28;20026;-43
2022/02/16 09:16:10;;;;;;;4.80;4.40;;;10.90;99.90;;;;;;5027357;28;20029;-43
2022/02/16 09:18:36;;;;;;;4.18;3.88;;;10.90;99.90;;;;;;5026388;28;20036;-42
2022/02/16 09:21:05;;;;;;;4.80;4.40;;;10.90;99.90;;;;;;5027401;28;20459;-44
2022/02/16 09:23:34;;;;;;;4.43;4.13;;;11.00;99.90;;;;;;5006680;28;20033;-42
2022/02/16 09:26:01;;;;;;;4.07;3.78;;;11.00;99.90;;;;;;5019089;28;20029;-44
2022/02/16 09:28:28;;;;;;;4.15;3.75;;;11.00;99.90;;;;;;5026968;28;20029;-42
2022/02/16 09:30:54;;;;;;;4.07;3.78;;;11.00;99.90;;;;;;5025841;28;20040;-43
2022/02/16 09:33:19;;;;;;;4.15;3.75;;;11.00;99.90;;;;;;5025793;28;20026;-43
2022/02/16 09:35:45;;;;;;;3.65;3.35;;;11.00;99.90;;;;;;5027311;28;20029;-43
2022/02/16 09:38:11;;;;;;;4.35;4.03;;;11.10;99.90;;;;;;5026601;28;20071;-43
2022/02/16 09:40:37;;;;;;;4.30;3.95;;;11.10;99.90;;;;;;5025598;28;20022;-43
2022/02/16 09:43:03;;;;;;;4.38;3.97;;;11.10;99.90;;;;;;5027035;28;20025;-43
2022/02/16 09:45:30;;;;;;;4.30;3.90;;;11.10;99.90;;;;;;5026067;28;20033;-41
2022/02/16 09:47:55;;;;;;;4.63;4.18;;;11.20;99.90;;;;;;5025845;28;20456;-43
2022/02/16 09:50:22;;;;;;;5.22;4.22;;;11.20;99.90;;;;;;5025964;28;20029;-43
2022/02/16 09:52:48;;;;;;;5.80;4.05;;;11.20;99.90;;;;;;5026186;28;20156;-43
2022/02/16 09:55:14;;;;;;;5.00;4.07;;;11.30;99.90;;;;;;5025962;28;20111;-43
2022/02/16 09:57:40;;;;;;;5.22;4.50;;;11.30;99.90;;;;;;5026342;28;20037;-43
2022/02/16 10:00:07;;;;;;;4.75;4.20;;;11.40;99.90;;;;;;5026517;28;20022;-43
2022/02/16 10:02:40;;;;;;;6.03;4.75;;;11.40;99.90;;;;;;5024866;28;20029;-43
2022/02/16 10:05:09;;;;;;;8.02;4.43;;;11.40;99.90;;;;;;5026510;28;20041;-43
2022/02/16 10:07:40;;;;;;;5.22;4.47;;;11.50;99.90;;;;;;5025808;28;20048;-43
2022/02/16 10:10:14;;;;;;;5.75;4.50;;;11.50;99.90;;;;;;5006370;28;20041;-43
2022/02/16 10:12:44;;;;;;;6.43;5.40;;;11.50;99.90;;;;;;5022181;28;20025;-42
2022/02/16 10:15:11;;;;;;;6.00;4.78;;;11.50;99.90;;;;;;5025513;28;20025;-43
2022/02/16 10:17:37;;;;;;;6.82;4.75;;;11.60;99.90;;;;;;5026137;28;20022;-43
2022/02/16 10:20:05;;;;;;;6.53;4.13;;;11.60;99.90;;;;;;5026718;28;20029;-42
2022/02/16 10:22:45;;;;;;;4.60;4.13;;;11.70;99.90;;;;;;5024868;28;20508;-43
2022/02/16 10:25:27;;;;;;;6.70;4.20;;;11.70;99.90;;;;;;5026346;28;20033;-43
2022/02/16 10:28:09;;;;;;;8.70;4.68;;;11.70;99.90;;;;;;5027076;28;20193;-43
2022/02/16 10:30:37;;;;;;;7.40;4.05;;;11.80;99.90;;;;;;5026111;28;20034;-43
2022/02/16 10:33:16;;;;;;;6.25;3.85;;;11.90;99.90;;;;;;5025661;28;20014;-44
2022/02/16 10:35:42;;;;;;;8.38;3.65;;;11.90;99.90;;;;;;5025945;28;20497;-43
2022/02/16 10:38:08;;;;;;;6.20;3.60;;;12.00;99.90;;;;;;5024710;28;20030;-44
2022/02/16 10:40:34;;;;;;;4.45;3.40;;;12.00;99.90;;;;;;5009575;28;20103;-44
2022/02/16 10:43:00;;;;;;;6.25;3.67;;;12.10;99.90;;;;;;5014678;28;20099;-43
2022/02/16 10:45:42;;;;;;;6.18;3.30;;;12.10;99.90;;;;;;5025321;28;20025;-44
2022/02/16 10:48:08;;;;;;;6.35;3.15;;;12.10;99.90;;;;;;5025667;28;20013;-44
2022/02/16 10:50:48;;;;;;;6.10;3.63;;;12.20;99.90;;;;;;5024383;28;20033;-44
2022/02/16 10:53:23;;;;;;;7.45;3.38;;;12.20;99.90;;;;;;5024535;28;20027;-43
2022/02/16 10:55:50;;;;;;;4.95;2.65;;;12.20;99.90;;;;;;5025586;28;20718;-43
2022/02/16 10:58:19;;;;;;;8.27;3.00;;;12.20;99.90;;;;;;5024655;28;20021;-43
2022/02/16 11:00:48;;;;;;;5.68;3.45;;;12.20;99.90;;;;;;5025227;28;20029;-44
2022/02/16 11:03:32;;;;;;;6.63;3.92;;;12.20;99.90;;;;;;5024796;28;20363;-42
2022/02/16 11:06:02;;;;;;;8.75;4.75;;;12.30;99.90;;;;;;5024520;28;20138;-43
2022/02/16 11:08:30;;;;;;;8.18;4.70;;;12.20;99.90;;;;;;5025336;28;20049;-44
2022/02/16 11:10:55;;;;;;;9.95;4.82;;;12.30;99.90;;;;;;5025347;28;20045;-44
2022/02/16 11:13:25;;;;;;;8.02;4.70;;;12.30;99.90;;;;;;5024599;28;20017;-46
2022/02/16 11:15:51;;;;;;;10.80;4.97;;;12.20;99.90;;;;;;5025771;28;20037;-43
2022/02/16 11:18:23;;;;;;;9.20;4.55;;;12.30;99.90;;;;;;5023511;28;20942;-45
2022/02/16 11:21:06;;;;;;;9.17;4.57;;;12.30;99.90;;;;;;5025422;28;20042;-43
2022/02/16 11:23:37;;;;;;;12.18;4.80;;;12.30;99.90;;;;;;5030013;28;20271;-43
2022/02/16 11:26:32;;;;;;;8.98;4.25;;;12.30;99.90;;;;;;5031745;28;20064;-43
2022/02/16 11:28:59;;;;;;;11.23;4.20;;;12.30;99.90;;;;;;5032132;28;20358;-43
2022/02/16 11:31:30;;;;;;;9.48;3.88;;;12.30;99.90;;;;;;5031257;28;20476;-44
2022/02/16 11:34:23;;;;;;;11.50;3.73;;;12.30;99.90;;;;;;5030548;28;20156;-43
2022/02/16 11:36:51;;;;;;;15.05;3.92;;;12.30;99.90;;;;;;5022473;28;20049;-44
2022/02/16 11:39:41;;;;;;;7.25;3.55;;;12.40;99.90;;;;;;5030757;28;20057;-44
2022/02/16 11:42:16;;;;;;;7.47;2.85;;;12.40;99.90;;;;;;5023537;28;20141;-43
2022/02/16 11:44:51;;;;;;;8.45;3.13;;;12.30;99.90;;;;;;5031882;28;20023;-43
2022/02/16 11:47:39;;;;;;;7.93;3.22;;;12.40;99.90;;;;;;5030678;28;20026;-45
2022/02/16 11:50:14;;;;;;;9.40;2.60;;;12.40;99.90;;;;;;5031439;28;20037;-44
2022/02/16 11:52:41;;;;;;;8.70;2.92;;;12.40;99.90;;;;;;5031561;28;20045;-42
2022/02/16 11:55:49;;;;;;;10.05;3.25;;;12.40;99.90;;;;;;5030706;28;20033;-44
2022/02/16 11:58:20;;;;;;;12.73;3.65;;;12.50;99.90;;;;;;5027558;28;20669;-44
2022/02/16 12:01:04;;;;;;;12.50;3.60;;;12.50;99.90;;;;;;5030595;28;20424;-43
2022/02/16 12:03:50;;;;;;;10.40;4.05;;;12.60;99.90;;;;;;5031374;28;20026;-44
2022/02/16 12:06:19;;;;;;;9.48;4.07;;;12.60;99.90;;;;;;5030160;28;20053;-44
2022/02/16 12:08:48;;;;;;;11.50;3.80;;;12.60;99.90;;;;;;5031013;28;20029;-43
2022/02/16 12:11:30;;;;;;;9.15;3.53;;;12.60;99.90;;;;;;5031039;28;20365;-43
2022/02/16 12:14:01;;;;;;;10.20;4.10;;;12.70;99.90;;;;;;5032142;28;20032;-43
2022/02/16 12:16:37;;;;;;;10.77;4.57;;;12.70;99.90;;;;;;5030057;28;20798;-44
2022/02/16 12:19:06;;;;;;;9.50;3.70;;;12.70;99.90;;;;;;5031724;28;20103;-43
2022/02/16 12:21:41;;;;;;;8.23;4.00;;;12.70;99.90;;;;;;5027814;28;20358;-43
2022/02/16 12:24:19;;;;;;;6.97;3.85;;;12.70;99.90;;;;;;5029847;28;20051;-45
2022/02/16 12:26:55;;;;;;;7.32;3.75;;;12.80;99.90;;;;;;5030289;28;20022;-44
2022/02/16 12:29:22;;;;;;;6.40;3.30;;;12.80;99.90;;;;;;5029730;28;20037;-44
2022/02/16 12:31:50;;;;;;;10.02;3.40;;;12.80;99.90;;;;;;5029469;28;20091;-43
2022/02/16 12:34:19;;;;;;;8.43;3.22;;;12.80;99.90;;;;;;5028717;28;20025;-43
2022/02/16 12:36:47;;;;;;;8.68;3.33;;;12.90;99.90;;;;;;5026496;28;20026;-44
2022/02/16 12:39:15;;;;;;;13.48;3.50;;;12.90;99.90;;;;;;5027452;28;20025;-44
2022/02/16 12:41:46;;;;;;;9.48;3.55;;;12.90;99.90;;;;;;5026616;28;20095;-43
2022/02/16 12:44:15;;;;;;;11.75;3.67;;;12.90;99.90;;;;;;5026025;28;20030;-43
2022/02/16 12:46:47;;;;;;;7.95;3.50;;;12.90;99.90;;;;;;5027242;28;20029;-44
2022/02/16 12:49:15;;;;;;;12.33;4.50;;;12.90;99.90;;;;;;5027375;28;20029;-44
2022/02/16 12:51:44;;;;;;;17.25;4.97;;;12.90;99.90;;;;;;5026519;28;20399;-43
2022/02/16 12:54:15;;;;;;;10.75;4.32;;;12.90;99.90;;;;;;5026736;28;20029;-43